Terminal Aerodrome Forecast
Issued by NWS Indianapolis, IN

Home | Current Version | Previous Version | Text Only | Print | Product List | Glossary On
Versions: 1 2 3 4 5 6 7 8 9 10 11 12 13 14 15 16 17 18 19 20 21 22 23 24 25 26 27 28 29 30
000
FTUS43 KIND 242325
TAFIND
TAF
KIND 242325Z 2500/2606 29010KT P6SM FEW200
     FM250200 29006KT P6SM FEW250
     FM251200 25006KT P6SM FEW200
     FM251500 28008KT P6SM FEW250
     FM260500 27004KT P6SM FEW200=

USA.gov is the U.S. government's official web portal to all federal, state and local government web resources and services.